createdAt,value
2017-08-08T00:00:24.658Z,-4.11
2017-08-08T00:01:20.030Z,-4.11
2017-08-08T00:02:13.709Z,-4.11
2017-08-08T00:03:13.719Z,-4.11
2017-08-08T00:04:08.687Z,-4.11
2017-08-08T00:05:08.885Z,-4.11
2017-08-08T00:06:02.877Z,-4.11
2017-08-08T00:07:02.817Z,-4.11
2017-08-08T00:07:57.854Z,-4.11
2017-08-08T00:08:57.982Z,-4.11
2017-08-08T00:09:57.980Z,-4.10
2017-08-08T00:10:58.264Z,-4.11
2017-08-08T00:11:52.300Z,-4.11
2017-08-08T00:12:53.344Z,-4.10
2017-08-08T00:13:54.100Z,-4.10
2017-08-08T00:14:49.375Z,-4.10
2017-08-08T00:15:43.163Z,-4.10
2017-08-08T00:16:43.345Z,-4.10
2017-08-08T00:17:38.329Z,-4.10
2017-08-08T00:18:38.221Z,-4.10
2017-08-08T00:19:32.315Z,-4.10
2017-08-08T00:20:32.356Z,-4.10
2017-08-08T00:21:27.464Z,-4.10
2017-08-08T00:22:22.465Z,-4.10
2017-08-08T00:23:22.517Z,-4.10
2017-08-08T00:24:17.476Z,-4.10
2017-08-08T00:25:12.477Z,-4.10
2017-08-08T00:26:12.498Z,-4.10
2017-08-08T00:27:07.563Z,-4.10
2017-08-08T00:28:02.624Z,-4.10
2017-08-08T00:29:03.980Z,-4.10
2017-08-08T00:30:03.684Z,-4.10
2017-08-08T00:31:03.803Z,-4.10
2017-08-08T00:31:58.838Z,-4.10
2017-08-08T00:32:52.796Z,-4.10
2017-08-08T00:33:52.744Z,-4.10
2017-08-08T00:34:48.174Z,-4.10
2017-08-08T00:35:48.233Z,-4.10
2017-08-08T00:36:42.292Z,-4.10
2017-08-08T00:37:41.970Z,-4.10
2017-08-08T00:38:37.003Z,-4.10
2017-08-08T00:39:32.414Z,-4.10
2017-08-08T00:40:32.288Z,-4.10
2017-08-08T00:41:27.378Z,-4.10
2017-08-08T00:42:22.138Z,-4.10
2017-08-08T00:43:23.160Z,-4.10
2017-08-08T00:44:24.265Z,-4.10
2017-08-08T00:45:19.248Z,-4.10
2017-08-08T00:46:08.289Z,-4.11
2017-08-08T00:46:56.503Z,-4.11
2017-08-08T00:47:44.414Z,-4.11
2017-08-08T00:48:32.460Z,-4.11
2017-08-08T00:49:26.422Z,-4.11
2017-08-08T00:50:15.619Z,-4.11
2017-08-08T00:51:10.631Z,-4.11
2017-08-08T00:51:59.593Z,-4.11
2017-08-08T00:52:53.639Z,-4.11
2017-08-08T00:53:42.649Z,-4.11
2017-08-08T00:54:30.867Z,-4.11
2017-08-08T00:55:30.690Z,-4.11
2017-08-08T00:56:30.965Z,-4.11
2017-08-08T00:57:24.759Z,-4.10
2017-08-08T00:58:26.121Z,-4.10
2017-08-08T00:59:27.147Z,-4.10
2017-08-08T01:00:21.910Z,-4.10
2017-08-08T01:01:16.293Z,-4.10
2017-08-08T01:02:15.974Z,-4.10
2017-08-08T01:03:10.963Z,-4.10
2017-08-08T01:04:11.370Z,-4.10
2017-08-08T01:05:05.089Z,-4.10
2017-08-08T01:06:05.312Z,-4.10
2017-08-08T01:07:00.238Z,-4.10
2017-08-08T01:07:55.312Z,-4.10
2017-08-08T01:08:55.208Z,-4.10
2017-08-08T01:09:50.323Z,-4.10
2017-08-08T01:10:45.343Z,-4.10
2017-08-08T01:11:45.352Z,-4.10
2017-08-08T01:12:40.447Z,-4.10
2017-08-08T01:13:35.839Z,-4.11
2017-08-08T01:14:36.746Z,-4.11
2017-08-08T01:15:36.457Z,-4.11
2017-08-08T01:16:36.926Z,-4.10
2017-08-08T01:17:31.742Z,-4.10
2017-08-08T01:18:25.632Z,-4.10
2017-08-08T01:19:25.672Z,-4.10
2017-08-08T01:20:20.852Z,-4.10
2017-08-08T01:21:21.041Z,-4.10
2017-08-08T01:22:15.080Z,-4.10
2017-08-08T01:23:15.018Z,-4.10
2017-08-08T01:24:09.829Z,-4.10
2017-08-08T01:25:09.904Z,-4.10
2017-08-08T01:26:10.276Z,-4.11
2017-08-08T01:27:10.141Z,-4.11
2017-08-08T01:27:59.027Z,-4.11
2017-08-08T01:28:46.999Z,-4.11
2017-08-08T01:29:42.022Z,-4.11
2017-08-08T01:30:44.199Z,-4.11
2017-08-08T01:31:31.464Z,-4.11
2017-08-08T01:32:20.126Z,-4.11
2017-08-08T01:33:08.196Z,-4.11
2017-08-08T01:33:56.542Z,-4.11
2017-08-08T01:34:45.321Z,-4.11
2017-08-08T01:35:33.473Z,-4.11
2017-08-08T01:36:21.706Z,-4.11
2017-08-08T01:37:15.460Z,-4.11
2017-08-08T01:38:03.607Z,-4.11
2017-08-08T01:39:04.833Z,-4.11
2017-08-08T01:40:04.608Z,-4.11
2017-08-08T01:40:52.678Z,-4.12
2017-08-08T01:41:41.027Z,-4.12
2017-08-08T01:42:28.671Z,-4.12
2017-08-08T01:43:29.875Z,-4.12
2017-08-08T01:44:18.908Z,-4.12
2017-08-08T01:45:18.991Z,-4.12
2017-08-08T01:46:20.174Z,-4.12
2017-08-08T01:47:13.822Z,-4.12
2017-08-08T01:48:02.187Z,-4.12
2017-08-08T01:48:56.180Z,-4.12
2017-08-08T01:49:45.019Z,-4.12
2017-08-08T01:50:40.018Z,-4.12
2017-08-08T01:51:35.305Z,-4.12
2017-08-08T01:52:24.131Z,-4.12
2017-08-08T01:53:19.276Z,-4.12
2017-08-08T01:54:13.168Z,-4.12
2017-08-08T01:55:01.276Z,-4.12
2017-08-08T01:55:55.639Z,-4.12
2017-08-08T01:56:49.286Z,-4.12
2017-08-08T01:57:44.302Z,-4.12
2017-08-08T01:58:33.323Z,-4.12
2017-08-08T01:59:27.406Z,-4.12
2017-08-08T02:00:16.423Z,-4.12
2017-08-08T02:01:04.515Z,-4.12
2017-08-08T02:01:53.489Z,-4.12
2017-08-08T02:02:47.552Z,-4.12
2017-08-08T02:03:35.552Z,-4.12
2017-08-08T02:04:23.822Z,-4.12
2017-08-08T02:05:11.922Z,-4.12
2017-08-08T02:06:05.727Z,-4.12
2017-08-08T02:06:59.755Z,-4.12
2017-08-08T02:07:59.881Z,-4.12
2017-08-08T02:08:54.878Z,-4.12
2017-08-08T02:09:54.882Z,-4.12
2017-08-08T02:10:55.295Z,-4.12
2017-08-08T02:12:00.993Z,-4.12
2017-08-08T02:13:00.975Z,-4.12
2017-08-08T02:14:02.109Z,-4.12
2017-08-08T02:14:56.017Z,-4.12
2017-08-08T02:15:56.139Z,-4.12
2017-08-08T02:16:51.128Z,-4.12
2017-08-08T02:17:51.227Z,-4.12
2017-08-08T02:18:45.175Z,-4.12
2017-08-08T02:19:45.169Z,-4.12
2017-08-08T02:20:40.224Z,-4.12
2017-08-08T02:21:35.619Z,-4.12
2017-08-08T02:22:35.263Z,-4.12
2017-08-08T02:23:30.412Z,-4.12
2017-08-08T02:24:25.382Z,-4.12
2017-08-08T02:25:26.415Z,-4.12
2017-08-08T02:26:26.409Z,-4.12
2017-08-08T02:27:26.439Z,-4.12
2017-08-08T02:28:26.509Z,-4.12
2017-08-08T02:29:27.652Z,-4.12
2017-08-08T02:30:28.850Z,-4.12
2017-08-08T02:31:23.027Z,-4.12
2017-08-08T02:32:22.681Z,-4.12
2017-08-08T02:33:17.701Z,-4.12
2017-08-08T02:34:17.741Z,-4.12
2017-08-08T02:35:17.799Z,-4.12
2017-08-08T02:36:24.193Z,-4.12
2017-08-08T02:37:19.200Z,-4.12
2017-08-08T02:38:12.896Z,-4.12
2017-08-08T02:39:12.929Z,-4.12
2017-08-08T02:40:12.884Z,-4.12
2017-08-08T02:41:08.509Z,-4.12
2017-08-08T02:42:02.089Z,-4.12
2017-08-08T02:43:02.018Z,-4.12
2017-08-08T02:43:57.131Z,-4.12
2017-08-08T02:44:57.086Z,-4.12
2017-08-08T02:45:51.222Z,-4.12
2017-08-08T02:46:51.331Z,-4.12
2017-08-08T02:47:46.213Z,-4.12
2017-08-08T02:48:41.249Z,-4.12
2017-08-08T02:49:41.273Z,-4.12
2017-08-08T02:50:36.330Z,-4.12
2017-08-08T02:51:31.644Z,-4.12
2017-08-08T02:52:32.427Z,-4.12
2017-08-08T02:53:32.438Z,-4.12
2017-08-08T02:54:32.400Z,-4.12
2017-08-08T02:55:27.432Z,-4.12
2017-08-08T02:56:21.769Z,-4.12
2017-08-08T02:57:21.601Z,-4.11
2017-08-08T02:58:16.565Z,-4.11
2017-08-08T02:59:16.741Z,-4.11
2017-08-08T03:00:10.916Z,-4.11
2017-08-08T03:01:11.045Z,-4.11
2017-08-08T03:02:06.008Z,-4.11
2017-08-08T03:03:00.885Z,-4.11
2017-08-08T03:04:00.948Z,-4.11
2017-08-08T03:04:55.863Z,-4.11
2017-08-08T03:05:51.208Z,-4.11
2017-08-08T03:06:52.074Z,-4.11
2017-08-08T03:07:52.188Z,-4.11
2017-08-08T03:08:52.264Z,-4.11
2017-08-08T03:09:52.301Z,-4.11
2017-08-08T03:10:53.262Z,-4.11
2017-08-08T03:11:54.251Z,-4.11
2017-08-08T03:12:48.357Z,-4.11
2017-08-08T03:13:48.391Z,-4.11
2017-08-08T03:14:43.422Z,-4.11
2017-08-08T03:15:38.455Z,-4.11
2017-08-08T03:16:38.427Z,-4.11
2017-08-08T03:17:33.602Z,-4.11
2017-08-08T03:18:28.564Z,-4.11
2017-08-08T03:19:28.576Z,-4.11
2017-08-08T03:20:23.606Z,-4.11
2017-08-08T03:21:18.694Z,-4.11
2017-08-08T03:22:24.704Z,-4.11
2017-08-08T03:23:18.676Z,-4.11
2017-08-08T03:24:18.797Z,-4.11
2017-08-08T03:25:13.797Z,-4.11
2017-08-08T03:26:19.860Z,-4.11
2017-08-08T03:27:19.937Z,-4.11
2017-08-08T03:28:20.956Z,-4.11
2017-08-08T03:29:14.926Z,-4.11
2017-08-08T03:30:14.970Z,-4.11
2017-08-08T03:31:09.942Z,-4.12
2017-08-08T03:32:10.061Z,-4.11
2017-08-08T03:33:09.999Z,-4.11
2017-08-08T03:34:10.201Z,-4.11
2017-08-08T03:35:04.248Z,-4.11
2017-08-08T03:36:04.256Z,-4.11
2017-08-08T03:36:58.951Z,-4.11
2017-08-08T03:37:53.958Z,-4.11
2017-08-08T03:38:55.293Z,-4.11
2017-08-08T03:39:55.045Z,-4.11
2017-08-08T03:40:55.116Z,-4.11
2017-08-08T03:41:50.126Z,-4.11
2017-08-08T03:42:44.229Z,-4.11
2017-08-08T03:43:45.439Z,-4.11
2017-08-08T03:44:45.170Z,-4.11
2017-08-08T03:45:45.512Z,-4.11
2017-08-08T03:46:40.614Z,-4.11
2017-08-08T03:47:34.580Z,-4.11
2017-08-08T03:48:34.610Z,-4.11
2017-08-08T03:49:29.705Z,-4.11
2017-08-08T03:50:29.834Z,-4.11
2017-08-08T03:51:29.812Z,-4.11
2017-08-08T03:52:24.885Z,-4.11
2017-08-08T03:53:24.884Z,-4.11
2017-08-08T03:54:19.867Z,-4.11
2017-08-08T03:55:14.936Z,-4.11
2017-08-08T03:56:08.904Z,-4.11
2017-08-08T03:56:58.060Z,-4.11
2017-08-08T03:57:53.057Z,-4.11
2017-08-08T03:58:48.000Z,-4.11
2017-08-08T03:59:48.049Z,-4.11
2017-08-08T04:00:43.397Z,-4.11
2017-08-08T04:01:32.076Z,-4.11
2017-08-08T04:02:26.215Z,-4.12
2017-08-08T04:03:20.385Z,-4.12
2017-08-08T04:04:09.328Z,-4.12
2017-08-08T04:04:57.396Z,-4.11
2017-08-08T04:05:46.438Z,-4.11
2017-08-08T04:06:40.200Z,-4.11
2017-08-08T04:07:34.539Z,-4.12
2017-08-08T04:08:28.518Z,-4.12
2017-08-08T04:09:23.628Z,-4.11
2017-08-08T04:10:17.671Z,-4.11
2017-08-08T04:11:11.790Z,-4.11
2017-08-08T04:11:59.775Z,-4.11
2017-08-08T04:12:53.755Z,-4.11
2017-08-08T04:13:53.840Z,-4.11
2017-08-08T04:14:53.781Z,-4.11
2017-08-08T04:15:53.860Z,-4.12
2017-08-08T04:16:54.098Z,-4.12
2017-08-08T04:17:53.874Z,-4.12
2017-08-08T04:18:53.986Z,-4.12
2017-08-08T04:19:53.979Z,-4.12
2017-08-08T04:20:48.023Z,-4.12
2017-08-08T04:21:42.083Z,-4.12
2017-08-08T04:22:36.082Z,-4.12
2017-08-08T04:23:25.052Z,-4.12
2017-08-08T04:24:14.117Z,-4.12
2017-08-08T04:25:03.175Z,-4.12
2017-08-08T04:26:04.253Z,-4.12
2017-08-08T04:26:58.298Z,-4.12
2017-08-08T04:27:47.470Z,-4.12
2017-08-08T04:28:36.402Z,-4.12
2017-08-08T04:29:25.438Z,-4.12
2017-08-08T04:30:13.460Z,-4.12
2017-08-08T04:31:02.500Z,-4.12
2017-08-08T04:31:56.544Z,-4.12
2017-08-08T04:32:50.635Z,-4.12
2017-08-08T04:33:50.666Z,-4.12
2017-08-08T04:34:44.665Z,-4.12
2017-08-08T04:35:39.695Z,-4.12
2017-08-08T04:36:40.814Z,-4.12
2017-08-08T04:37:35.797Z,-4.12
2017-08-08T04:38:30.776Z,-4.12
2017-08-08T04:39:18.835Z,-4.12
2017-08-08T04:40:18.921Z,-4.12
2017-08-08T04:41:13.957Z,-4.12
2017-08-08T04:42:08.994Z,-4.13
2017-08-08T04:43:09.121Z,-4.13
2017-08-08T04:44:04.236Z,-4.13
2017-08-08T04:44:59.067Z,-4.13
2017-08-08T04:45:59.196Z,-4.13
2017-08-08T04:46:53.137Z,-4.13
2017-08-08T04:47:47.283Z,-4.12
2017-08-08T04:48:48.307Z,-4.12
2017-08-08T04:49:48.396Z,-4.12
2017-08-08T04:50:43.395Z,-4.12
2017-08-08T04:51:38.401Z,-4.12
2017-08-08T04:52:27.449Z,-4.13
2017-08-08T04:53:27.399Z,-4.12
2017-08-08T04:54:16.508Z,-4.12
2017-08-08T04:55:10.605Z,-4.12
2017-08-08T04:56:05.634Z,-4.12
2017-08-08T04:56:54.562Z,-4.12
2017-08-08T04:57:48.595Z,-4.12
2017-08-08T04:58:42.684Z,-4.12
2017-08-08T04:59:37.674Z,-4.12
2017-08-08T05:00:31.822Z,-4.12
2017-08-08T05:01:25.860Z,-4.12
2017-08-08T05:02:20.931Z,-4.12
2017-08-08T05:03:09.893Z,-4.12
2017-08-08T05:04:09.951Z,-4.12
2017-08-08T05:05:04.988Z,-4.12
2017-08-08T05:06:05.315Z,-4.12
2017-08-08T05:07:04.984Z,-4.12
2017-08-08T05:08:05.121Z,-4.12
2017-08-08T05:09:05.147Z,-4.12
2017-08-08T05:10:05.220Z,-4.12
2017-08-08T05:11:05.279Z,-4.12
2017-08-08T05:12:05.334Z,-4.12
2017-08-08T05:12:53.358Z,-4.12
2017-08-08T05:13:48.312Z,-4.12
2017-08-08T05:14:37.342Z,-4.12
2017-08-08T05:15:32.424Z,-4.12
2017-08-08T05:16:26.469Z,-4.12
2017-08-08T05:17:27.456Z,-4.12
2017-08-08T05:18:22.599Z,-4.12
2017-08-08T05:19:16.510Z,-4.12
2017-08-08T05:20:05.533Z,-4.12
2017-08-08T05:20:54.649Z,-4.12
2017-08-08T05:21:49.764Z,-4.12
2017-08-08T05:22:49.759Z,-4.12
2017-08-08T05:23:43.768Z,-4.12
2017-08-08T05:24:44.836Z,-4.12
2017-08-08T05:25:39.890Z,-4.12
2017-08-08T05:26:34.890Z,-4.12
2017-08-08T05:27:28.861Z,-4.12
2017-08-08T05:28:29.005Z,-4.12
2017-08-08T05:29:23.102Z,-4.12
2017-08-08T05:30:18.026Z,-4.12
2017-08-08T05:31:18.126Z,-4.12
2017-08-08T05:32:12.119Z,-4.12
2017-08-08T05:33:12.296Z,-4.12
2017-08-08T05:34:06.232Z,-4.12
2017-08-08T05:35:01.203Z,-4.12
2017-08-08T05:36:02.362Z,-4.11
2017-08-08T05:36:51.316Z,-4.11
2017-08-08T05:37:40.415Z,-4.11
2017-08-08T05:38:29.592Z,-4.11
2017-08-08T05:39:24.509Z,-4.11
2017-08-08T05:40:18.494Z,-4.11
2017-08-08T05:41:19.582Z,-4.11
2017-08-08T05:42:14.640Z,-4.11
2017-08-08T05:43:08.650Z,-4.11
2017-08-08T05:43:56.704Z,-4.11
2017-08-08T05:44:51.745Z,-4.11
2017-08-08T05:45:45.832Z,-4.11
2017-08-08T05:46:39.795Z,-4.11
2017-08-08T05:47:39.825Z,-4.11
2017-08-08T05:48:34.882Z,-4.11
2017-08-08T05:49:24.065Z,-4.11
2017-08-08T05:50:12.980Z,-4.11
2017-08-08T05:51:02.106Z,-4.11
2017-08-08T05:52:02.085Z,-4.11
2017-08-08T05:52:56.123Z,-4.11
2017-08-08T05:53:56.171Z,-4.11
2017-08-08T05:54:51.368Z,-4.11
2017-08-08T05:55:51.219Z,-4.11
2017-08-08T05:56:45.269Z,-4.11
2017-08-08T05:57:45.286Z,-4.11
2017-08-08T05:58:39.416Z,-4.11
2017-08-08T05:59:34.410Z,-4.11
2017-08-08T06:00:34.463Z,-4.11
2017-08-08T06:01:29.566Z,-4.11
2017-08-08T06:02:24.529Z,-4.11
2017-08-08T06:03:18.575Z,-4.11
2017-08-08T06:04:18.570Z,-4.11
2017-08-08T06:05:13.749Z,-4.11
2017-08-08T06:06:08.757Z,-4.11
2017-08-08T06:07:08.762Z,-4.11
2017-08-08T06:08:03.813Z,-4.11
2017-08-08T06:08:58.819Z,-4.11
2017-08-08T06:09:58.790Z,-4.11
2017-08-08T06:10:58.955Z,-4.11
2017-08-08T06:11:47.061Z,-4.11
2017-08-08T06:12:36.042Z,-4.11
2017-08-08T06:13:30.064Z,-4.11
2017-08-08T06:14:18.152Z,-4.11
2017-08-08T06:15:06.252Z,-4.11
2017-08-08T06:16:01.228Z,-4.11
2017-08-08T06:16:55.240Z,-4.11
2017-08-08T06:17:49.260Z,-4.11
2017-08-08T06:18:50.326Z,-4.11
2017-08-08T06:19:44.270Z,-4.11
2017-08-08T06:20:44.401Z,-4.10
2017-08-08T06:21:39.398Z,-4.10
2017-08-08T06:22:33.521Z,-4.09
2017-08-08T06:23:27.510Z,-4.08
2017-08-08T06:24:21.605Z,-4.08
2017-08-08T06:25:21.605Z,-4.07
2017-08-08T06:26:16.746Z,-4.06
2017-08-08T06:27:10.779Z,-4.06
2017-08-08T06:28:10.735Z,2.08
2017-08-08T06:28:59.839Z,0.98
2017-08-08T06:29:53.932Z,13.13
2017-08-08T06:30:53.859Z,16.16
2017-08-08T06:31:48.879Z,21.51
2017-08-08T06:32:43.032Z,17.38
2017-08-08T06:33:38.122Z,15.98
2017-08-08T06:34:33.091Z,19.97
2017-08-08T06:35:33.124Z,21.66
2017-08-08T06:36:27.200Z,22.54
2017-08-08T06:37:21.275Z,18.95
2017-08-08T06:38:16.347Z,22.33
2017-08-08T06:39:10.430Z,19.50
2017-08-08T06:40:04.448Z,19.66
2017-08-08T06:40:53.403Z,28.14
2017-08-08T06:41:42.530Z,23.10
2017-08-08T06:42:37.572Z,24.35
2017-08-08T06:43:37.619Z,27.87
2017-08-08T06:44:31.784Z,27.28
2017-08-08T06:45:25.720Z,24.05
2017-08-08T06:46:19.708Z,21.87
2017-08-08T06:47:13.812Z,21.22
2017-08-08T06:48:08.953Z,20.42
2017-08-08T06:49:03.029Z,26.00
2017-08-08T06:49:52.029Z,27.59
2017-08-08T06:50:47.116Z,29.08
2017-08-08T06:51:36.099Z,24.56
2017-08-08T06:52:31.212Z,26.33
2017-08-08T06:53:31.152Z,21.63
2017-08-08T06:54:20.219Z,23.95
2017-08-08T06:55:08.395Z,18.55
2017-08-08T06:56:02.375Z,19.43
2017-08-08T06:56:56.443Z,21.74
2017-08-08T06:57:51.437Z,23.67
2017-08-08T06:58:51.589Z,17.30
2017-08-08T06:59:45.608Z,25.06
2017-08-08T07:00:39.681Z,24.78
2017-08-08T07:01:34.750Z,25.75
2017-08-08T07:02:29.830Z,32.02
2017-08-08T07:03:18.732Z,29.80
2017-08-08T07:04:12.917Z,32.25
2017-08-08T07:05:06.871Z,38.31
2017-08-08T07:06:00.896Z,38.20
2017-08-08T07:06:54.940Z,43.18
2017-08-08T07:07:43.013Z,43.40
2017-08-08T07:08:43.017Z,40.13
2017-08-08T07:09:31.145Z,40.20
2017-08-08T07:10:25.260Z,36.85
2017-08-08T07:11:14.321Z,31.60
2017-08-08T07:12:02.352Z,31.16
2017-08-08T07:13:02.346Z,37.06
2017-08-08T07:13:51.462Z,41.03
2017-08-08T07:14:40.469Z,40.53
2017-08-08T07:15:34.597Z,42.29
2017-08-08T07:16:28.671Z,42.42
2017-08-08T07:17:28.625Z,38.15
2017-08-08T07:18:23.782Z,44.26
2017-08-08T07:19:11.724Z,44.39
2017-08-08T07:19:59.868Z,44.50
2017-08-08T07:20:48.872Z,45.19
2017-08-08T07:21:42.877Z,46.18
2017-08-08T07:22:30.926Z,46.63
2017-08-08T07:23:26.041Z,46.64
2017-08-08T07:24:26.004Z,46.75
2017-08-08T07:25:20.148Z,45.88
2017-08-08T07:26:14.263Z,47.22
2017-08-08T07:27:14.320Z,46.25
2017-08-08T07:28:14.373Z,45.54
2017-08-08T07:29:08.353Z,41.76
2017-08-08T07:30:03.409Z,45.93
2017-08-08T07:30:58.462Z,46.56
2017-08-08T07:31:52.565Z,45.85
2017-08-08T07:32:46.720Z,45.91
2017-08-08T07:33:34.726Z,43.34
2017-08-08T07:34:22.793Z,46.60
2017-08-08T07:35:10.763Z,43.88
2017-08-08T07:36:04.975Z,47.43
2017-08-08T07:36:59.958Z,47.27
2017-08-08T07:38:01.050Z,46.95
2017-08-08T07:38:50.052Z,47.55
2017-08-08T07:39:44.181Z,45.74
2017-08-08T07:40:32.182Z,43.12
2017-08-08T07:41:26.250Z,42.55
2017-08-08T07:42:14.273Z,42.34
2017-08-08T07:43:02.391Z,44.98
2017-08-08T07:43:50.439Z,45.43
2017-08-08T07:44:44.434Z,43.19
2017-08-08T07:45:38.482Z,40.89
2017-08-08T07:46:27.622Z,37.49
2017-08-08T07:47:16.533Z,35.88
2017-08-08T07:48:17.779Z,37.84
2017-08-08T07:49:06.795Z,36.00
2017-08-08T07:50:06.814Z,38.11
2017-08-08T07:51:01.919Z,34.75
2017-08-08T07:52:01.951Z,30.96
2017-08-08T07:52:50.921Z,36.04
2017-08-08T07:53:46.056Z,31.81
2017-08-08T07:54:41.111Z,34.43
2017-08-08T07:55:42.166Z,30.45
2017-08-08T07:56:37.198Z,29.94
2017-08-08T07:57:32.251Z,28.60
2017-08-08T07:58:27.374Z,27.34
2017-08-08T07:59:21.337Z,26.16
2017-08-08T08:00:09.435Z,25.65
2017-08-08T08:01:04.477Z,17.99
2017-08-08T08:01:53.518Z,10.04
2017-08-08T08:02:47.537Z,11.26
2017-08-08T08:03:41.590Z,2.38
2017-08-08T08:04:41.635Z,16.18
2017-08-08T08:05:41.764Z,15.07
2017-08-08T08:06:29.761Z,23.40
2017-08-08T08:07:23.771Z,23.27
2017-08-08T08:08:18.805Z,24.35
2017-08-08T08:09:13.974Z,22.97
2017-08-08T08:10:09.047Z,25.41
2017-08-08T08:11:04.047Z,17.74
2017-08-08T08:11:53.101Z,18.78
2017-08-08T08:12:42.178Z,15.37
2017-08-08T08:13:37.139Z,23.53
2017-08-08T08:14:37.247Z,21.50
2017-08-08T08:15:37.376Z,18.62
2017-08-08T08:16:31.342Z,19.93
2017-08-08T08:17:25.435Z,14.05
2017-08-08T08:18:14.631Z,7.20
2017-08-08T08:19:02.518Z,8.36
2017-08-08T08:20:02.587Z,6.82
2017-08-08T08:20:56.667Z,12.72
2017-08-08T08:21:56.668Z,11.81
2017-08-08T08:22:50.775Z,19.05
2017-08-08T08:23:50.730Z,12.70
2017-08-08T08:24:39.785Z,12.69
2017-08-08T08:25:28.930Z,14.50
2017-08-08T08:26:23.976Z,14.35
2017-08-08T08:27:23.961Z,7.98
2017-08-08T08:28:13.149Z,8.98
2017-08-08T08:29:02.102Z,7.06
2017-08-08T08:30:02.155Z,5.21
2017-08-08T08:31:03.255Z,11.15
2017-08-08T08:32:03.215Z,20.96
2017-08-08T08:32:58.327Z,27.83
2017-08-08T08:33:53.351Z,18.57
2017-08-08T08:34:53.421Z,24.75
2017-08-08T08:35:48.411Z,30.62
2017-08-08T08:36:42.536Z,28.81
2017-08-08T08:37:37.553Z,27.33
2017-08-08T08:38:31.696Z,26.66
2017-08-08T08:39:25.681Z,24.29
2017-08-08T08:40:14.783Z,17.03
2017-08-08T08:41:02.818Z,16.14
2017-08-08T08:41:57.849Z,18.23
2017-08-08T08:42:51.974Z,16.31
2017-08-08T08:43:46.923Z,22.08
2017-08-08T08:44:46.955Z,27.21
2017-08-08T08:45:40.930Z,33.55
2017-08-08T08:46:41.008Z,28.60
2017-08-08T08:47:35.113Z,32.72
2017-08-08T08:48:30.180Z,35.07
2017-08-08T08:49:25.209Z,34.33
2017-08-08T08:50:13.282Z,32.31
2017-08-08T08:51:07.348Z,28.41
2017-08-08T08:52:07.427Z,22.88
2017-08-08T08:52:56.517Z,28.60
2017-08-08T08:53:50.696Z,33.40
2017-08-08T08:54:44.507Z,26.63
2017-08-08T08:55:39.631Z,32.98
2017-08-08T08:56:34.681Z,33.39
2017-08-08T08:57:28.699Z,31.92
2017-08-08T08:58:22.754Z,29.67
2017-08-08T08:59:11.776Z,31.91
2017-08-08T09:00:11.808Z,29.94
2017-08-08T09:01:00.942Z,24.17
2017-08-08T09:01:55.952Z,24.17
2017-08-08T09:02:50.112Z,31.58
2017-08-08T09:03:50.127Z,25.92
2017-08-08T09:04:39.134Z,31.10
2017-08-08T09:05:28.223Z,26.49
2017-08-08T09:06:28.234Z,20.12
2017-08-08T09:07:23.398Z,25.73
2017-08-08T09:08:12.388Z,34.52
2017-08-08T09:09:06.438Z,34.89
2017-08-08T09:09:55.582Z,32.24
2017-08-08T09:10:44.500Z,33.81
2017-08-08T09:11:44.547Z,31.60
2017-08-08T09:12:44.633Z,29.88
2017-08-08T09:13:39.750Z,25.19
2017-08-08T09:14:33.733Z,21.82
2017-08-08T09:15:22.832Z,26.63
2017-08-08T09:16:16.879Z,28.74
2017-08-08T09:17:11.876Z,33.00
2017-08-08T09:18:05.886Z,33.42
2017-08-08T09:19:01.064Z,31.26
2017-08-08T09:20:01.033Z,31.34
2017-08-08T09:20:56.078Z,34.17
2017-08-08T09:21:50.153Z,31.73
2017-08-08T09:22:44.265Z,31.13
2017-08-08T09:23:38.204Z,34.38
2017-08-08T09:24:27.308Z,34.53
2017-08-08T09:25:21.479Z,37.31
2017-08-08T09:26:15.403Z,35.39
2017-08-08T09:27:04.552Z,30.53
2017-08-08T09:27:53.526Z,33.55
2017-08-08T09:28:48.708Z,34.63
2017-08-08T09:29:42.704Z,34.74
2017-08-08T09:30:30.721Z,37.70
2017-08-08T09:31:24.841Z,37.17
2017-08-08T09:32:18.787Z,37.32
2017-08-08T09:33:12.798Z,32.35
2017-08-08T09:34:12.929Z,35.63
2017-08-08T09:35:01.997Z,37.01
2017-08-08T09:35:56.032Z,39.97
2017-08-08T09:36:51.373Z,30.84
2017-08-08T09:37:45.235Z,32.80
2017-08-08T09:38:34.294Z,37.76
2017-08-08T09:39:29.358Z,36.17
2017-08-08T09:40:24.377Z,33.61
2017-08-08T09:41:24.350Z,36.55
2017-08-08T09:42:19.379Z,35.08
2017-08-08T09:43:19.500Z,33.56
2017-08-08T09:44:08.578Z,33.54
2017-08-08T09:45:02.599Z,37.23
2017-08-08T09:45:56.742Z,32.03
2017-08-08T09:46:50.687Z,29.37
2017-08-08T09:47:44.824Z,27.67
2017-08-08T09:48:38.755Z,35.60
2017-08-08T09:49:32.906Z,37.80
2017-08-08T09:50:21.957Z,35.09
2017-08-08T09:51:17.038Z,34.04
2017-08-08T09:52:11.139Z,32.86
2017-08-08T09:53:10.984Z,33.75
2017-08-08T09:54:00.119Z,30.47
2017-08-08T09:54:49.281Z,24.33
2017-08-08T09:55:49.315Z,26.65
2017-08-08T09:56:43.300Z,30.42
2017-08-08T09:57:43.359Z,35.72
2017-08-08T09:58:32.630Z,31.56
2017-08-08T09:59:21.498Z,35.21
2017-08-08T10:00:15.497Z,33.07
2017-08-08T10:01:04.696Z,30.29
2017-08-08T10:01:59.640Z,31.86
2017-08-08T10:02:59.646Z,33.21
2017-08-08T10:03:53.799Z,33.13
2017-08-08T10:04:54.722Z,32.89
2017-08-08T10:05:49.846Z,30.61
2017-08-08T10:06:38.876Z,29.77
2017-08-08T10:07:32.903Z,29.39
2017-08-08T10:08:22.040Z,24.02
2017-08-08T10:09:10.938Z,17.63
2017-08-08T10:10:05.071Z,31.55
2017-08-08T10:10:53.175Z,32.84
2017-08-08T10:11:47.204Z,24.67
2017-08-08T10:12:47.132Z,24.53
2017-08-08T10:13:36.320Z,25.97
2017-08-08T10:14:24.300Z,26.55
2017-08-08T10:15:25.450Z,28.12
2017-08-08T10:16:19.311Z,30.67
2017-08-08T10:17:19.462Z,30.29
2017-08-08T10:18:08.611Z,29.86
2017-08-08T10:19:08.627Z,33.07
2017-08-08T10:20:02.713Z,29.69
2017-08-08T10:20:57.767Z,19.77
2017-08-08T10:21:57.733Z,9.27
2017-08-08T10:22:51.859Z,18.81
2017-08-08T10:23:51.862Z,23.40
2017-08-08T10:24:45.896Z,16.84
2017-08-08T10:25:35.073Z,14.37
2017-08-08T10:26:29.066Z,14.14
2017-08-08T10:27:24.007Z,13.31
2017-08-08T10:28:18.061Z,18.17
2017-08-08T10:29:07.271Z,20.09
2017-08-08T10:30:01.068Z,16.83
2017-08-08T10:30:49.106Z,8.34
2017-08-08T10:31:44.334Z,18.02
2017-08-08T10:32:33.126Z,19.35
2017-08-08T10:33:27.343Z,18.20
2017-08-08T10:34:27.458Z,10.18
2017-08-08T10:35:21.424Z,11.70
2017-08-08T10:36:16.372Z,14.80
2017-08-08T10:37:05.623Z,12.84
2017-08-08T10:38:05.805Z,11.85
2017-08-08T10:39:00.808Z,9.64
2017-08-08T10:39:54.825Z,3.98
2017-08-08T10:40:49.861Z,16.08
2017-08-08T10:41:43.867Z,7.17
2017-08-08T10:42:39.006Z,1.15
2017-08-08T10:43:38.975Z,-3.55
2017-08-08T10:44:34.153Z,4.02
2017-08-08T10:45:29.195Z,4.93
2017-08-08T10:46:29.235Z,0.68
2017-08-08T10:47:29.223Z,14.07
2017-08-08T10:48:23.242Z,9.35
2017-08-08T10:49:17.441Z,17.93
2017-08-08T10:50:11.329Z,12.33
2017-08-08T10:51:05.461Z,10.11
2017-08-08T10:52:00.121Z,7.11
2017-08-08T10:52:54.365Z,10.34
2017-08-08T10:53:43.520Z,3.52
2017-08-08T10:54:38.381Z,3.76
2017-08-08T10:55:27.797Z,7.82
2017-08-08T10:56:21.460Z,13.33
2017-08-08T10:57:21.818Z,14.16
2017-08-08T10:58:16.853Z,4.24
2017-08-08T10:59:05.850Z,3.06
2017-08-08T10:59:59.899Z,9.05
2017-08-08T11:01:00.110Z,18.56
2017-08-08T11:01:54.001Z,11.49
2017-08-08T11:02:53.784Z,13.73
2017-08-08T11:03:48.131Z,9.88
2017-08-08T11:04:35.923Z,12.25
2017-08-08T11:05:24.012Z,16.72
2017-08-08T11:06:19.314Z,6.41
2017-08-08T11:07:13.989Z,9.19
2017-08-08T11:08:14.548Z,3.05
2017-08-08T11:09:09.495Z,9.34
2017-08-08T11:09:58.528Z,7.95
2017-08-08T11:10:53.359Z,-4.03
2017-08-08T11:11:48.419Z,-3.95
2017-08-08T11:12:43.523Z,-4.04
2017-08-08T11:13:43.741Z,-4.04
2017-08-08T11:14:37.747Z,2.33
2017-08-08T11:15:32.859Z,-2.35
2017-08-08T11:16:26.880Z,-4.04
2017-08-08T11:17:21.898Z,-4.04
2017-08-08T11:18:15.791Z,-4.04
2017-08-08T11:19:10.786Z,1.86
2017-08-08T11:20:05.710Z,-4.04
2017-08-08T11:21:00.786Z,-4.04
2017-08-08T11:21:54.898Z,-4.04
2017-08-08T11:22:48.855Z,-4.04
2017-08-08T11:23:37.991Z,-4.04
2017-08-08T11:24:32.027Z,-4.04
2017-08-08T11:25:21.171Z,-4.04
2017-08-08T11:26:15.447Z,-4.05
2017-08-08T11:27:10.364Z,-4.05
2017-08-08T11:28:05.447Z,-4.05
2017-08-08T11:28:59.611Z,-4.06
2017-08-08T11:29:54.670Z,-4.06
2017-08-08T11:30:54.684Z,-4.06
2017-08-08T11:31:54.643Z,-4.06
2017-08-08T11:32:54.769Z,-4.06
2017-08-08T11:33:54.808Z,-4.06
2017-08-08T11:34:48.885Z,-4.06
2017-08-08T11:35:48.972Z,-4.06
2017-08-08T11:36:37.985Z,-4.07
2017-08-08T11:37:32.041Z,-4.06
2017-08-08T11:38:26.057Z,-4.06
2017-08-08T11:39:20.156Z,-4.06
2017-08-08T11:40:14.130Z,-4.07
2017-08-08T11:41:14.225Z,-4.06
2017-08-08T11:42:03.233Z,-4.07
2017-08-08T11:42:57.326Z,-4.07
2017-08-08T11:43:57.331Z,-4.06
2017-08-08T11:44:45.362Z,-4.06
2017-08-08T11:45:34.391Z,-4.06
2017-08-08T11:46:22.578Z,-4.06
2017-08-08T11:47:11.553Z,-4.06
2017-08-08T11:48:00.610Z,-4.05
2017-08-08T11:48:54.606Z,-4.05